Harrisburg, New York
Current Conditions -  °F | °C
As of 3:26 AM on Tuesday 21 Oct 2014 (Local Time) from KGTB Reporting Station
Drizzle Drizzle  
Wind Chill: 41°   Ceiling: 3000
Heat Index: 46°   Visibility: 10mi
Dew Point: 45°   Wind: 10mph
Humidity: 93%   Direction: 150°SSE
Pressure: 29.83"   Gusts: NA
Location:  43.7565°N, 75.5938°W
Report Text: KGTB 210726Z AUTO 15009KT 10SM -DZ BKN030 BKN055 08/07 A2983 RMK AO2 DZB0726
Loading
Personal Weather Stations






























Interactive Weather Map
Tropical Storm Tracking
New forecast layout! Learn more

10-Day Weather Forecast

Advertisements
Track Severe Weather on mobile